sensor_id;sensor_type;location;lat;lon;timestamp;P1;durP1;ratioP1;P2;durP2;ratioP2
77864;SDS011;67061;48.524;9.040;2023-05-29T00:00:02;10.38;;;5.85;;
77864;SDS011;67061;48.524;9.040;2023-05-29T00:02:32;9.68;;;7.28;;
77864;SDS011;67061;48.524;9.040;2023-05-29T00:05:00;13.70;;;5.97;;
77864;SDS011;67061;48.524;9.040;2023-05-29T00:07:28;12.52;;;5.75;;
77864;SDS011;67061;48.524;9.040;2023-05-29T00:09:55;12.88;;;5.57;;
77864;SDS011;67061;48.524;9.040;2023-05-29T00:12:22;17.48;;;6.78;;
77864;SDS011;67061;48.524;9.040;2023-05-29T00:14:49;14.63;;;7.47;;
77864;SDS011;67061;48.524;9.040;2023-05-29T00:17:16;11.63;;;6.90;;
77864;SDS011;67061;48.524;9.040;2023-05-29T00:19:43;18.10;;;5.50;;
77864;SDS011;67061;48.524;9.040;2023-05-29T00:22:11;15.43;;;5.43;;
77864;SDS011;67061;48.524;9.040;2023-05-29T00:24:38;19.67;;;5.45;;
77864;SDS011;67061;48.524;9.040;2023-05-29T00:27:05;24.02;;;5.47;;
77864;SDS011;67061;48.524;9.040;2023-05-29T00:29:33;16.55;;;4.85;;
77864;SDS011;67061;48.524;9.040;2023-05-29T00:32:00;18.65;;;6.68;;
77864;SDS011;67061;48.524;9.040;2023-05-29T00:34:27;14.02;;;5.95;;
77864;SDS011;67061;48.524;9.040;2023-05-29T00:36:54;11.43;;;4.70;;
77864;SDS011;67061;48.524;9.040;2023-05-29T00:39:23;10.52;;;7.47;;
77864;SDS011;67061;48.524;9.040;2023-05-29T00:41:50;11.15;;;5.13;;
77864;SDS011;67061;48.524;9.040;2023-05-29T00:44:17;10.32;;;6.25;;
77864;SDS011;67061;48.524;9.040;2023-05-29T00:46:44;10.77;;;5.75;;
77864;SDS011;67061;48.524;9.040;2023-05-29T00:49:11;9.23;;;5.25;;
77864;SDS011;67061;48.524;9.040;2023-05-29T00:51:39;11.75;;;5.28;;
77864;SDS011;67061;48.524;9.040;2023-05-29T00:54:06;11.63;;;5.90;;
77864;SDS011;67061;48.524;9.040;2023-05-29T00:56:35;15.13;;;4.93;;
77864;SDS011;67061;48.524;9.040;2023-05-29T00:59:02;18.70;;;6.38;;
77864;SDS011;67061;48.524;9.040;2023-05-29T01:01:29;15.63;;;4.97;;
77864;SDS011;67061;48.524;9.040;2023-05-29T01:03:57;13.10;;;4.82;;
77864;SDS011;67061;48.524;9.040;2023-05-29T01:06:27;15.20;;;5.35;;
77864;SDS011;67061;48.524;9.040;2023-05-29T01:08:54;9.65;;;4.47;;
77864;SDS011;67061;48.524;9.040;2023-05-29T01:11:23;11.13;;;5.28;;
77864;SDS011;67061;48.524;9.040;2023-05-29T01:13:58;13.27;;;4.20;;
77864;SDS011;67061;48.524;9.040;2023-05-29T01:16:35;14.70;;;4.38;;
77864;SDS011;67061;48.524;9.040;2023-05-29T01:19:10;14.18;;;4.85;;
77864;SDS011;67061;48.524;9.040;2023-05-29T01:21:49;11.52;;;4.85;;
77864;SDS011;67061;48.524;9.040;2023-05-29T01:24:26;11.75;;;5.88;;
77864;SDS011;67061;48.524;9.040;2023-05-29T01:27:05;9.60;;;5.18;;
77864;SDS011;67061;48.524;9.040;2023-05-29T01:29:42;12.60;;;5.57;;
77864;SDS011;67061;48.524;9.040;2023-05-29T01:32:11;8.68;;;4.68;;
77864;SDS011;67061;48.524;9.040;2023-05-29T01:34:40;9.93;;;5.25;;
77864;SDS011;67061;48.524;9.040;2023-05-29T01:37:06;11.68;;;4.60;;
77864;SDS011;67061;48.524;9.040;2023-05-29T01:39:33;9.80;;;4.40;;
77864;SDS011;67061;48.524;9.040;2023-05-29T01:42:02;9.70;;;5.32;;
77864;SDS011;67061;48.524;9.040;2023-05-29T01:44:32;8.77;;;4.32;;
77864;SDS011;67061;48.524;9.040;2023-05-29T01:46:59;13.73;;;5.18;;
77864;SDS011;67061;48.524;9.040;2023-05-29T01:49:27;8.77;;;5.10;;
77864;SDS011;67061;48.524;9.040;2023-05-29T01:51:54;9.68;;;4.68;;
77864;SDS011;67061;48.524;9.040;2023-05-29T01:54:21;8.52;;;5.13;;
77864;SDS011;67061;48.524;9.040;2023-05-29T01:56:48;8.88;;;5.40;;
77864;SDS011;67061;48.524;9.040;2023-05-29T01:59:17;10.50;;;5.80;;
77864;SDS011;67061;48.524;9.040;2023-05-29T02:01:47;10.50;;;5.55;;
77864;SDS011;67061;48.524;9.040;2023-05-29T02:04:14;9.13;;;4.35;;
77864;SDS011;67061;48.524;9.040;2023-05-29T02:06:41;13.40;;;4.85;;
77864;SDS011;67061;48.524;9.040;2023-05-29T02:09:07;10.30;;;6.20;;
77864;SDS011;67061;48.524;9.040;2023-05-29T02:11:34;11.70;;;5.68;;
77864;SDS011;67061;48.524;9.040;2023-05-29T02:14:01;9.38;;;4.43;;
77864;SDS011;67061;48.524;9.040;2023-05-29T02:16:30;10.63;;;4.88;;
77864;SDS011;67061;48.524;9.040;2023-05-29T02:18:58;7.97;;;4.43;;
77864;SDS011;67061;48.524;9.040;2023-05-29T02:21:26;8.57;;;4.55;;
77864;SDS011;67061;48.524;9.040;2023-05-29T02:23:53;10.68;;;5.35;;
77864;SDS011;67061;48.524;9.040;2023-05-29T02:26:20;10.10;;;5.50;;
77864;SDS011;67061;48.524;9.040;2023-05-29T02:28:47;10.52;;;5.53;;
77864;SDS011;67061;48.524;9.040;2023-05-29T02:31:15;9.65;;;4.32;;
77864;SDS011;67061;48.524;9.040;2023-05-29T02:33:43;8.93;;;4.18;;
77864;SDS011;67061;48.524;9.040;2023-05-29T02:36:10;9.00;;;4.45;;
77864;SDS011;67061;48.524;9.040;2023-05-29T02:38:37;9.80;;;5.38;;
77864;SDS011;67061;48.524;9.040;2023-05-29T02:41:04;9.63;;;4.43;;
77864;SDS011;67061;48.524;9.040;2023-05-29T02:43:31;10.32;;;5.70;;
77864;SDS011;67061;48.524;9.040;2023-05-29T02:45:58;8.43;;;4.72;;
77864;SDS011;67061;48.524;9.040;2023-05-29T02:48:25;7.22;;;3.92;;
77864;SDS011;67061;48.524;9.040;2023-05-29T02:50:53;9.80;;;5.82;;
77864;SDS011;67061;48.524;9.040;2023-05-29T02:53:20;8.05;;;4.13;;
77864;SDS011;67061;48.524;9.040;2023-05-29T02:55:48;9.63;;;4.65;;
77864;SDS011;67061;48.524;9.040;2023-05-29T03:00:43;9.45;;;4.63;;
77864;SDS011;67061;48.524;9.040;2023-05-29T03:03:09;7.82;;;4.07;;
77864;SDS011;67061;48.524;9.040;2023-05-29T03:05:36;7.30;;;4.30;;
77864;SDS011;67061;48.524;9.040;2023-05-29T03:08:05;9.13;;;4.43;;
77864;SDS011;67061;48.524;9.040;2023-05-29T03:10:32;8.73;;;5.25;;
77864;SDS011;67061;48.524;9.040;2023-05-29T03:12:58;7.95;;;4.40;;
77864;SDS011;67061;48.524;9.040;2023-05-29T03:15:25;12.13;;;5.88;;
77864;SDS011;67061;48.524;9.040;2023-05-29T03:17:52;14.25;;;7.28;;
77864;SDS011;67061;48.524;9.040;2023-05-29T03:20:19;10.68;;;5.43;;
77864;SDS011;67061;48.524;9.040;2023-05-29T03:22:46;8.90;;;4.97;;
77864;SDS011;67061;48.524;9.040;2023-05-29T03:25:14;9.77;;;5.15;;
77864;SDS011;67061;48.524;9.040;2023-05-29T03:27:42;10.30;;;5.57;;
77864;SDS011;67061;48.524;9.040;2023-05-29T03:30:09;8.05;;;4.75;;
77864;SDS011;67061;48.524;9.040;2023-05-29T03:32:37;7.68;;;4.63;;
77864;SDS011;67061;48.524;9.040;2023-05-29T03:35:04;7.57;;;4.18;;
77864;SDS011;67061;48.524;9.040;2023-05-29T03:37:31;7.78;;;4.30;;
77864;SDS011;67061;48.524;9.040;2023-05-29T03:39:58;8.80;;;3.72;;
77864;SDS011;67061;48.524;9.040;2023-05-29T03:42:26;10.63;;;4.47;;
77864;SDS011;67061;48.524;9.040;2023-05-29T03:44:55;10.00;;;5.28;;
77864;SDS011;67061;48.524;9.040;2023-05-29T03:47:22;9.20;;;4.57;;
77864;SDS011;67061;48.524;9.040;2023-05-29T03:49:49;8.80;;;4.47;;
77864;SDS011;67061;48.524;9.040;2023-05-29T03:52:16;8.68;;;5.40;;
77864;SDS011;67061;48.524;9.040;2023-05-29T03:54:43;8.27;;;4.40;;
77864;SDS011;67061;48.524;9.040;2023-05-29T03:57:10;8.43;;;4.03;;
77864;SDS011;67061;48.524;9.040;2023-05-29T03:59:38;8.57;;;4.55;;
77864;SDS011;67061;48.524;9.040;2023-05-29T04:02:05;8.30;;;4.50;;
77864;SDS011;67061;48.524;9.040;2023-05-29T04:04:32;10.75;;;5.20;;
77864;SDS011;67061;48.524;9.040;2023-05-29T04:06:59;8.45;;;5.20;;
77864;SDS011;67061;48.524;9.040;2023-05-29T04:09:26;7.80;;;4.63;;
77864;SDS011;67061;48.524;9.040;2023-05-29T04:11:53;10.90;;;6.60;;
77864;SDS011;67061;48.524;9.040;2023-05-29T04:14:20;8.43;;;4.72;;
77864;SDS011;67061;48.524;9.040;2023-05-29T04:16:48;10.10;;;4.38;;
77864;SDS011;67061;48.524;9.040;2023-05-29T04:19:15;8.43;;;4.57;;
77864;SDS011;67061;48.524;9.040;2023-05-29T04:21:42;11.95;;;6.10;;
77864;SDS011;67061;48.524;9.040;2023-05-29T04:24:09;8.73;;;5.22;;
77864;SDS011;67061;48.524;9.040;2023-05-29T04:26:36;10.90;;;5.07;;
77864;SDS011;67061;48.524;9.040;2023-05-29T04:29:06;9.50;;;6.05;;
77864;SDS011;67061;48.524;9.040;2023-05-29T04:31:33;8.73;;;5.78;;
77864;SDS011;67061;48.524;9.040;2023-05-29T04:34:03;8.10;;;4.97;;
77864;SDS011;67061;48.524;9.040;2023-05-29T04:36:30;11.05;;;4.82;;
77864;SDS011;67061;48.524;9.040;2023-05-29T04:38:58;8.63;;;4.60;;
77864;SDS011;67061;48.524;9.040;2023-05-29T04:41:25;10.23;;;5.82;;
77864;SDS011;67061;48.524;9.040;2023-05-29T04:43:56;9.60;;;4.82;;
77864;SDS011;67061;48.524;9.040;2023-05-29T04:46:23;9.68;;;5.80;;
77864;SDS011;67061;48.524;9.040;2023-05-29T04:48:50;9.25;;;6.15;;
77864;SDS011;67061;48.524;9.040;2023-05-29T04:51:20;10.52;;;5.75;;
77864;SDS011;67061;48.524;9.040;2023-05-29T04:53:48;9.52;;;5.93;;
77864;SDS011;67061;48.524;9.040;2023-05-29T04:56:16;9.18;;;4.47;;
77864;SDS011;67061;48.524;9.040;2023-05-29T04:58:43;11.00;;;6.82;;
77864;SDS011;67061;48.524;9.040;2023-05-29T05:01:10;9.82;;;5.03;;
77864;SDS011;67061;48.524;9.040;2023-05-29T05:03:39;8.30;;;5.25;;
77864;SDS011;67061;48.524;9.040;2023-05-29T05:06:06;10.32;;;5.82;;
77864;SDS011;67061;48.524;9.040;2023-05-29T05:08:35;9.23;;;5.88;;
77864;SDS011;67061;48.524;9.040;2023-05-29T05:11:02;9.82;;;5.25;;
77864;SDS011;67061;48.524;9.040;2023-05-29T05:13:29;10.77;;;7.10;;
77864;SDS011;67061;48.524;9.040;2023-05-29T05:15:56;9.60;;;5.22;;
77864;SDS011;67061;48.524;9.040;2023-05-29T05:18:23;9.95;;;6.50;;
77864;SDS011;67061;48.524;9.040;2023-05-29T05:20:49;9.70;;;6.10;;
77864;SDS011;67061;48.524;9.040;2023-05-29T05:23:16;10.15;;;6.40;;
77864;SDS011;67061;48.524;9.040;2023-05-29T05:25:45;9.70;;;5.78;;
77864;SDS011;67061;48.524;9.040;2023-05-29T05:28:12;10.50;;;5.53;;
77864;SDS011;67061;48.524;9.040;2023-05-29T05:30:39;8.52;;;6.45;;
77864;SDS011;67061;48.524;9.040;2023-05-29T05:33:06;10.50;;;6.50;;
77864;SDS011;67061;48.524;9.040;2023-05-29T05:35:33;10.15;;;5.20;;
77864;SDS011;67061;48.524;9.040;2023-05-29T05:38:00;9.80;;;5.70;;
77864;SDS011;67061;48.524;9.040;2023-05-29T05:40:26;10.88;;;5.97;;
77864;SDS011;67061;48.524;9.040;2023-05-29T05:42:55;10.00;;;5.57;;
77864;SDS011;67061;48.524;9.040;2023-05-29T05:45:22;10.43;;;5.82;;
77864;SDS011;67061;48.524;9.040;2023-05-29T05:47:48;10.30;;;7.07;;
77864;SDS011;67061;48.524;9.040;2023-05-29T05:50:15;10.93;;;5.75;;
77864;SDS011;67061;48.524;9.040;2023-05-29T05:52:42;11.50;;;5.28;;
77864;SDS011;67061;48.524;9.040;2023-05-29T05:55:10;8.47;;;6.20;;
77864;SDS011;67061;48.524;9.040;2023-05-29T05:57:37;11.43;;;6.95;;
77864;SDS011;67061;48.524;9.040;2023-05-29T06:00:07;10.13;;;6.88;;
77864;SDS011;67061;48.524;9.040;2023-05-29T06:02:36;9.95;;;6.85;;
77864;SDS011;67061;48.524;9.040;2023-05-29T06:05:03;11.02;;;6.53;;
77864;SDS011;67061;48.524;9.040;2023-05-29T06:07:32;10.45;;;6.05;;
77864;SDS011;67061;48.524;9.040;2023-05-29T06:09:59;9.80;;;5.78;;
77864;SDS011;67061;48.524;9.040;2023-05-29T06:12:26;10.45;;;5.15;;
77864;SDS011;67061;48.524;9.040;2023-05-29T06:14:53;10.85;;;6.07;;
77864;SDS011;67061;48.524;9.040;2023-05-29T06:17:21;9.23;;;5.10;;
77864;SDS011;67061;48.524;9.040;2023-05-29T06:22:15;12.48;;;6.35;;
77864;SDS011;67061;48.524;9.040;2023-05-29T06:24:42;9.93;;;6.47;;
77864;SDS011;67061;48.524;9.040;2023-05-29T06:27:09;9.27;;;5.10;;
77864;SDS011;67061;48.524;9.040;2023-05-29T06:29:36;9.77;;;6.45;;
77864;SDS011;67061;48.524;9.040;2023-05-29T06:32:03;11.35;;;5.82;;
77864;SDS011;67061;48.524;9.040;2023-05-29T06:34:32;9.27;;;6.10;;
77864;SDS011;67061;48.524;9.040;2023-05-29T06:36:58;9.20;;;6.45;;
77864;SDS011;67061;48.524;9.040;2023-05-29T06:39:25;9.50;;;5.47;;
77864;SDS011;67061;48.524;9.040;2023-05-29T06:41:52;9.32;;;6.15;;
77864;SDS011;67061;48.524;9.040;2023-05-29T06:44:19;8.38;;;5.22;;
77864;SDS011;67061;48.524;9.040;2023-05-29T06:46:46;9.15;;;6.85;;
77864;SDS011;67061;48.524;9.040;2023-05-29T06:49:13;9.85;;;5.97;;
77864;SDS011;67061;48.524;9.040;2023-05-29T06:51:41;9.48;;;5.65;;
77864;SDS011;67061;48.524;9.040;2023-05-29T06:54:10;11.57;;;5.35;;
77864;SDS011;67061;48.524;9.040;2023-05-29T06:56:36;11.63;;;6.65;;
77864;SDS011;67061;48.524;9.040;2023-05-29T06:59:03;10.48;;;6.03;;
77864;SDS011;67061;48.524;9.040;2023-05-29T07:01:30;10.07;;;6.15;;
77864;SDS011;67061;48.524;9.040;2023-05-29T07:03:57;9.38;;;6.03;;
77864;SDS011;67061;48.524;9.040;2023-05-29T07:06:24;8.95;;;5.22;;
77864;SDS011;67061;48.524;9.040;2023-05-29T07:08:52;8.00;;;6.25;;
77864;SDS011;67061;48.524;9.040;2023-05-29T07:11:20;11.15;;;6.82;;
77864;SDS011;67061;48.524;9.040;2023-05-29T07:13:46;9.18;;;6.97;;
77864;SDS011;67061;48.524;9.040;2023-05-29T07:16:13;8.30;;;5.35;;
77864;SDS011;67061;48.524;9.040;2023-05-29T07:18:40;10.20;;;6.85;;
77864;SDS011;67061;48.524;9.040;2023-05-29T07:21:07;11.07;;;7.35;;
77864;SDS011;67061;48.524;9.040;2023-05-29T07:23:35;9.52;;;6.97;;
77864;SDS011;67061;48.524;9.040;2023-05-29T07:26:03;9.35;;;6.65;;
77864;SDS011;67061;48.524;9.040;2023-05-29T07:28:30;9.60;;;5.72;;
77864;SDS011;67061;48.524;9.040;2023-05-29T07:30:57;10.32;;;6.28;;
77864;SDS011;67061;48.524;9.040;2023-05-29T07:33:24;9.82;;;6.13;;
77864;SDS011;67061;48.524;9.040;2023-05-29T07:35:51;10.35;;;6.88;;
77864;SDS011;67061;48.524;9.040;2023-05-29T07:38:18;9.80;;;5.57;;
77864;SDS011;67061;48.524;9.040;2023-05-29T07:40:45;9.07;;;5.88;;
77864;SDS011;67061;48.524;9.040;2023-05-29T07:43:13;9.82;;;6.32;;
77864;SDS011;67061;48.524;9.040;2023-05-29T07:45:40;8.32;;;5.13;;
77864;SDS011;67061;48.524;9.040;2023-05-29T07:48:07;8.82;;;6.25;;
77864;SDS011;67061;48.524;9.040;2023-05-29T07:50:33;9.40;;;5.80;;
77864;SDS011;67061;48.524;9.040;2023-05-29T07:53:02;9.60;;;5.60;;
77864;SDS011;67061;48.524;9.040;2023-05-29T07:55:31;10.00;;;5.63;;
77864;SDS011;67061;48.524;9.040;2023-05-29T07:57:58;9.32;;;5.32;;
77864;SDS011;67061;48.524;9.040;2023-05-29T08:00:26;6.93;;;4.72;;
77864;SDS011;67061;48.524;9.040;2023-05-29T08:02:53;8.07;;;5.70;;
77864;SDS011;67061;48.524;9.040;2023-05-29T08:05:20;7.95;;;5.28;;
77864;SDS011;67061;48.524;9.040;2023-05-29T08:07:47;8.68;;;5.10;;
77864;SDS011;67061;48.524;9.040;2023-05-29T08:10:14;8.82;;;5.22;;
77864;SDS011;67061;48.524;9.040;2023-05-29T08:12:41;8.18;;;5.43;;
77864;SDS011;67061;48.524;9.040;2023-05-29T08:15:08;8.25;;;4.25;;
77864;SDS011;67061;48.524;9.040;2023-05-29T08:17:38;6.50;;;5.32;;
77864;SDS011;67061;48.524;9.040;2023-05-29T08:20:05;7.15;;;4.82;;
77864;SDS011;67061;48.524;9.040;2023-05-29T08:22:35;8.25;;;5.05;;
77864;SDS011;67061;48.524;9.040;2023-05-29T08:25:02;8.25;;;5.22;;
77864;SDS011;67061;48.524;9.040;2023-05-29T08:27:29;7.70;;;5.13;;
77864;SDS011;67061;48.524;9.040;2023-05-29T08:29:56;6.75;;;4.30;;
77864;SDS011;67061;48.524;9.040;2023-05-29T08:32:22;8.02;;;5.47;;
77864;SDS011;67061;48.524;9.040;2023-05-29T08:34:51;6.85;;;4.90;;
77864;SDS011;67061;48.524;9.040;2023-05-29T08:37:19;6.50;;;3.97;;
77864;SDS011;67061;48.524;9.040;2023-05-29T08:39:46;7.20;;;4.63;;
77864;SDS011;67061;48.524;9.040;2023-05-29T08:42:13;8.85;;;5.28;;
77864;SDS011;67061;48.524;9.040;2023-05-29T08:44:45;7.75;;;5.30;;
77864;SDS011;67061;48.524;9.040;2023-05-29T08:47:14;10.57;;;5.35;;
77864;SDS011;67061;48.524;9.040;2023-05-29T08:49:45;8.02;;;5.35;;
77864;SDS011;67061;48.524;9.040;2023-05-29T08:52:21;9.93;;;5.32;;
77864;SDS011;67061;48.524;9.040;2023-05-29T08:54:50;7.50;;;5.45;;
77864;SDS011;67061;48.524;9.040;2023-05-29T08:57:18;8.52;;;5.00;;
77864;SDS011;67061;48.524;9.040;2023-05-29T08:59:46;7.97;;;5.22;;
77864;SDS011;67061;48.524;9.040;2023-05-29T09:02:15;6.93;;;5.28;;
77864;SDS011;67061;48.524;9.040;2023-05-29T09:04:42;9.02;;;4.95;;
77864;SDS011;67061;48.524;9.040;2023-05-29T09:07:13;8.93;;;5.13;;
77864;SDS011;67061;48.524;9.040;2023-05-29T09:09:41;9.05;;;4.65;;
77864;SDS011;67061;48.524;9.040;2023-05-29T09:14:36;6.68;;;4.80;;
77864;SDS011;67061;48.524;9.040;2023-05-29T09:19:32;7.03;;;4.18;;
77864;SDS011;67061;48.524;9.040;2023-05-29T09:22:02;7.32;;;4.38;;
77864;SDS011;67061;48.524;9.040;2023-05-29T09:24:32;7.47;;;5.75;;
77864;SDS011;67061;48.524;9.040;2023-05-29T09:27:01;7.63;;;4.95;;
77864;SDS011;67061;48.524;9.040;2023-05-29T09:29:30;8.85;;;5.13;;
77864;SDS011;67061;48.524;9.040;2023-05-29T09:31:57;7.38;;;5.07;;
77864;SDS011;67061;48.524;9.040;2023-05-29T09:34:25;8.73;;;5.05;;
77864;SDS011;67061;48.524;9.040;2023-05-29T09:36:52;7.10;;;5.10;;
77864;SDS011;67061;48.524;9.040;2023-05-29T09:39:21;7.40;;;4.88;;
77864;SDS011;67061;48.524;9.040;2023-05-29T09:41:48;6.97;;;5.10;;
77864;SDS011;67061;48.524;9.040;2023-05-29T09:44:17;7.88;;;5.22;;
77864;SDS011;67061;48.524;9.040;2023-05-29T09:46:45;8.82;;;5.28;;
77864;SDS011;67061;48.524;9.040;2023-05-29T09:49:15;7.22;;;5.00;;
77864;SDS011;67061;48.524;9.040;2023-05-29T09:51:42;6.65;;;4.55;;
77864;SDS011;67061;48.524;9.040;2023-05-29T09:54:13;7.10;;;4.90;;
77864;SDS011;67061;48.524;9.040;2023-05-29T09:56:44;7.47;;;5.38;;
77864;SDS011;67061;48.524;9.040;2023-05-29T09:59:12;6.78;;;5.50;;
77864;SDS011;67061;48.524;9.040;2023-05-29T10:04:10;8.05;;;5.15;;
77864;SDS011;67061;48.524;9.040;2023-05-29T10:06:37;7.63;;;5.10;;
77864;SDS011;67061;48.524;9.040;2023-05-29T10:09:08;8.23;;;5.18;;
77864;SDS011;67061;48.524;9.040;2023-05-29T10:11:37;10.50;;;4.55;;
77864;SDS011;67061;48.524;9.040;2023-05-29T10:14:06;8.43;;;5.00;;
77864;SDS011;67061;48.524;9.040;2023-05-29T10:16:43;7.05;;;5.45;;
77864;SDS011;67061;48.524;9.040;2023-05-29T10:19:12;7.07;;;4.78;;
77864;SDS011;67061;48.524;9.040;2023-05-29T10:21:42;6.90;;;3.75;;
77864;SDS011;67061;48.524;9.040;2023-05-29T10:24:09;8.80;;;5.75;;
77864;SDS011;67061;48.524;9.040;2023-05-29T10:26:38;6.57;;;3.90;;
77864;SDS011;67061;48.524;9.040;2023-05-29T10:29:08;7.80;;;4.55;;
77864;SDS011;67061;48.524;9.040;2023-05-29T10:31:41;6.30;;;3.92;;
77864;SDS011;67061;48.524;9.040;2023-05-29T10:34:18;8.50;;;4.95;;
77864;SDS011;67061;48.524;9.040;2023-05-29T10:36:56;10.43;;;4.93;;
77864;SDS011;67061;48.524;9.040;2023-05-29T10:39:30;7.18;;;4.60;;
77864;SDS011;67061;48.524;9.040;2023-05-29T10:41:58;7.18;;;4.95;;
77864;SDS011;67061;48.524;9.040;2023-05-29T10:44:38;7.68;;;4.75;;
77864;SDS011;67061;48.524;9.040;2023-05-29T10:47:13;6.15;;;4.65;;
77864;SDS011;67061;48.524;9.040;2023-05-29T10:49:49;7.75;;;4.68;;
77864;SDS011;67061;48.524;9.040;2023-05-29T10:52:18;6.38;;;4.45;;
77864;SDS011;67061;48.524;9.040;2023-05-29T10:54:51;6.78;;;4.50;;
77864;SDS011;67061;48.524;9.040;2023-05-29T10:57:20;5.95;;;4.05;;
77864;SDS011;67061;48.524;9.040;2023-05-29T10:59:57;6.05;;;3.95;;
77864;SDS011;67061;48.524;9.040;2023-05-29T11:02:26;6.47;;;4.32;;
77864;SDS011;67061;48.524;9.040;2023-05-29T11:05:06;6.70;;;4.40;;
77864;SDS011;67061;48.524;9.040;2023-05-29T11:07:51;5.93;;;3.40;;
77864;SDS011;67061;48.524;9.040;2023-05-29T11:13:09;6.57;;;3.30;;
77864;SDS011;67061;48.524;9.040;2023-05-29T11:15:37;6.13;;;4.47;;
77864;SDS011;67061;48.524;9.040;2023-05-29T11:18:08;5.88;;;3.13;;
77864;SDS011;67061;48.524;9.040;2023-05-29T11:20:42;7.22;;;4.25;;
77864;SDS011;67061;48.524;9.040;2023-05-29T11:23:14;6.32;;;4.97;;
77864;SDS011;67061;48.524;9.040;2023-05-29T11:25:44;6.32;;;4.47;;
77864;SDS011;67061;48.524;9.040;2023-05-29T11:28:12;6.78;;;3.25;;
77864;SDS011;67061;48.524;9.040;2023-05-29T11:30:44;7.38;;;4.50;;
77864;SDS011;67061;48.524;9.040;2023-05-29T11:33:15;5.20;;;4.15;;
77864;SDS011;67061;48.524;9.040;2023-05-29T11:35:49;5.15;;;3.20;;
77864;SDS011;67061;48.524;9.040;2023-05-29T11:38:21;6.32;;;4.30;;
77864;SDS011;67061;48.524;9.040;2023-05-29T11:40:47;6.90;;;4.03;;
77864;SDS011;67061;48.524;9.040;2023-05-29T11:43:15;6.90;;;3.70;;
77864;SDS011;67061;48.524;9.040;2023-05-29T11:45:42;5.43;;;3.50;;
77864;SDS011;67061;48.524;9.040;2023-05-29T11:48:09;6.38;;;4.25;;
77864;SDS011;67061;48.524;9.040;2023-05-29T11:50:37;5.47;;;3.83;;
77864;SDS011;67061;48.524;9.040;2023-05-29T11:55:32;7.22;;;4.40;;
77864;SDS011;67061;48.524;9.040;2023-05-29T11:57:59;5.78;;;4.15;;
77864;SDS011;67061;48.524;9.040;2023-05-29T12:00:30;6.28;;;4.43;;
77864;SDS011;67061;48.524;9.040;2023-05-29T12:02:57;5.53;;;3.78;;
77864;SDS011;67061;48.524;9.040;2023-05-29T12:05:28;4.82;;;3.67;;
77864;SDS011;67061;48.524;9.040;2023-05-29T12:07:57;6.20;;;3.30;;
77864;SDS011;67061;48.524;9.040;2023-05-29T12:10:27;4.68;;;3.55;;
77864;SDS011;67061;48.524;9.040;2023-05-29T12:12:54;7.13;;;3.70;;
77864;SDS011;67061;48.524;9.040;2023-05-29T12:15:22;5.68;;;4.10;;
77864;SDS011;67061;48.524;9.040;2023-05-29T12:17:50;5.45;;;3.88;;
77864;SDS011;67061;48.524;9.040;2023-05-29T12:20:18;5.43;;;4.10;;
77864;SDS011;67061;48.524;9.040;2023-05-29T12:22:47;5.80;;;3.55;;
77864;SDS011;67061;48.524;9.040;2023-05-29T12:25:16;4.93;;;3.55;;
77864;SDS011;67061;48.524;9.040;2023-05-29T12:27:44;7.90;;;4.18;;
77864;SDS011;67061;48.524;9.040;2023-05-29T12:30:12;5.75;;;4.13;;
77864;SDS011;67061;48.524;9.040;2023-05-29T12:32:41;6.38;;;4.18;;
77864;SDS011;67061;48.524;9.040;2023-05-29T12:35:11;5.95;;;4.10;;
77864;SDS011;67061;48.524;9.040;2023-05-29T12:37:43;4.40;;;3.78;;
77864;SDS011;67061;48.524;9.040;2023-05-29T12:40:16;5.80;;;4.20;;
77864;SDS011;67061;48.524;9.040;2023-05-29T12:42:44;4.97;;;3.33;;
77864;SDS011;67061;48.524;9.040;2023-05-29T12:45:12;7.38;;;3.78;;
77864;SDS011;67061;48.524;9.040;2023-05-29T12:47:51;5.72;;;4.28;;
77864;SDS011;67061;48.524;9.040;2023-05-29T12:50:22;6.47;;;4.40;;
77864;SDS011;67061;48.524;9.040;2023-05-29T12:52:54;6.22;;;4.07;;
77864;SDS011;67061;48.524;9.040;2023-05-29T12:55:26;6.82;;;3.97;;
77864;SDS011;67061;48.524;9.040;2023-05-29T12:57:53;7.38;;;3.60;;
77864;SDS011;67061;48.524;9.040;2023-05-29T13:00:21;6.57;;;3.88;;
77864;SDS011;67061;48.524;9.040;2023-05-29T13:02:48;5.40;;;4.05;;
77864;SDS011;67061;48.524;9.040;2023-05-29T13:05:16;7.57;;;4.30;;
77864;SDS011;67061;48.524;9.040;2023-05-29T13:07:44;5.55;;;3.63;;
77864;SDS011;67061;48.524;9.040;2023-05-29T13:10:13;6.55;;;3.95;;
77864;SDS011;67061;48.524;9.040;2023-05-29T13:12:41;5.97;;;3.97;;
77864;SDS011;67061;48.524;9.040;2023-05-29T13:15:09;5.25;;;3.55;;
77864;SDS011;67061;48.524;9.040;2023-05-29T13:17:37;6.72;;;4.22;;
77864;SDS011;67061;48.524;9.040;2023-05-29T13:22:33;5.68;;;3.65;;
77864;SDS011;67061;48.524;9.040;2023-05-29T13:25:00;5.57;;;3.40;;
77864;SDS011;67061;48.524;9.040;2023-05-29T13:27:27;5.72;;;3.20;;
77864;SDS011;67061;48.524;9.040;2023-05-29T13:29:55;5.55;;;3.47;;
77864;SDS011;67061;48.524;9.040;2023-05-29T13:34:49;4.97;;;3.67;;
77864;SDS011;67061;48.524;9.040;2023-05-29T13:37:16;5.60;;;3.58;;
77864;SDS011;67061;48.524;9.040;2023-05-29T13:39:43;8.25;;;4.30;;
77864;SDS011;67061;48.524;9.040;2023-05-29T13:42:10;6.18;;;4.25;;
77864;SDS011;67061;48.524;9.040;2023-05-29T13:44:37;5.70;;;4.22;;
77864;SDS011;67061;48.524;9.040;2023-05-29T13:47:06;5.20;;;3.70;;
77864;SDS011;67061;48.524;9.040;2023-05-29T13:49:33;6.53;;;3.85;;
77864;SDS011;67061;48.524;9.040;2023-05-29T13:52:00;6.20;;;3.60;;
77864;SDS011;67061;48.524;9.040;2023-05-29T13:54:27;5.45;;;3.95;;
77864;SDS011;67061;48.524;9.040;2023-05-29T13:56:55;3.70;;;2.13;;
77864;SDS011;67061;48.524;9.040;2023-05-29T13:59:23;5.18;;;3.25;;
77864;SDS011;67061;48.524;9.040;2023-05-29T14:01:50;5.10;;;3.50;;
77864;SDS011;67061;48.524;9.040;2023-05-29T14:04:18;6.30;;;3.95;;
77864;SDS011;67061;48.524;9.040;2023-05-29T14:06:45;4.70;;;3.63;;
77864;SDS011;67061;48.524;9.040;2023-05-29T14:09:12;6.57;;;3.78;;
77864;SDS011;67061;48.524;9.040;2023-05-29T14:11:39;6.43;;;3.80;;
77864;SDS011;67061;48.524;9.040;2023-05-29T14:14:06;5.28;;;4.00;;
77864;SDS011;67061;48.524;9.040;2023-05-29T14:16:33;4.85;;;3.85;;
77864;SDS011;67061;48.524;9.040;2023-05-29T14:19:00;4.55;;;3.40;;
77864;SDS011;67061;48.524;9.040;2023-05-29T14:21:28;5.20;;;3.50;;
77864;SDS011;67061;48.524;9.040;2023-05-29T14:23:55;4.07;;;3.40;;
77864;SDS011;67061;48.524;9.040;2023-05-29T14:26:22;5.85;;;4.03;;
77864;SDS011;67061;48.524;9.040;2023-05-29T14:28:49;7.13;;;3.30;;
77864;SDS011;67061;48.524;9.040;2023-05-29T14:31:16;5.18;;;4.07;;
77864;SDS011;67061;48.524;9.040;2023-05-29T14:33:43;4.80;;;3.83;;
77864;SDS011;67061;48.524;9.040;2023-05-29T14:36:10;4.63;;;3.45;;
77864;SDS011;67061;48.524;9.040;2023-05-29T14:38:39;4.97;;;3.65;;
77864;SDS011;67061;48.524;9.040;2023-05-29T14:41:08;5.28;;;3.50;;
77864;SDS011;67061;48.524;9.040;2023-05-29T14:43:34;5.78;;;3.97;;
77864;SDS011;67061;48.524;9.040;2023-05-29T14:46:01;6.22;;;3.63;;
77864;SDS011;67061;48.524;9.040;2023-05-29T14:48:29;5.10;;;3.53;;
77864;SDS011;67061;48.524;9.040;2023-05-29T14:50:56;6.05;;;3.72;;
77864;SDS011;67061;48.524;9.040;2023-05-29T14:53:23;4.78;;;3.42;;
77864;SDS011;67061;48.524;9.040;2023-05-29T14:55:51;6.00;;;3.42;;
77864;SDS011;67061;48.524;9.040;2023-05-29T15:00:45;5.85;;;3.53;;
77864;SDS011;67061;48.524;9.040;2023-05-29T15:03:12;4.95;;;3.45;;
77864;SDS011;67061;48.524;9.040;2023-05-29T15:05:39;4.80;;;3.58;;
77864;SDS011;67061;48.524;9.040;2023-05-29T15:08:06;5.80;;;3.70;;
77864;SDS011;67061;48.524;9.040;2023-05-29T15:10:32;4.90;;;3.85;;
77864;SDS011;67061;48.524;9.040;2023-05-29T15:13:01;5.55;;;3.85;;